Flight Track Log - Related Links

Times and Time Zones

All times are in EDT time to prevent confusion due to time zone crossing. See the N1944E flight status page for this flight to view local times or setup timezone preferences in your user account.

Time Position Orientation Groundspeed Altitude Reporting Facility
EDT Latitude Longitude Course Direction KTS MPH feet Rate Location/Type
Sat 08:37:41 AM 44.3219 -109.2622 211° Southwest 108 124 13,100  Level Salt Lake Center
Sat 08:38:41 AM 44.2986 -109.2900 220° Southwest 113 130 14,000 793 Climbing Salt Lake Center
Sat 08:39:42 AM 44.2747 -109.3178 220° Southwest 114 131 14,700 893 Climbing Salt Lake Center
Sat 08:40:00 AM 44.2980 -109.2119 211° Southwest  Level Estimated
Sat 08:40:42 AM 44.2508 -109.3467 221° Southwest 116 133 15,800  Level Salt Lake Center
Sat 08:41:00 AM 44.2609 -109.2431 211° Southwest  Level Estimated
Sat 08:41:43 AM 44.2231 -109.3761 217° Southwest 115 132 17,200  Level Salt Lake Center
Sat 08:42:00 AM 44.2238 -109.2742 211° Southwest  Level Estimated
Sat 08:42:43 AM 44.2047 -109.4000 223° Southwest 108 124 17,800  Level Salt Lake Center
Sat 08:43:44 AM 44.1842 -109.4256 222° Southwest 104 120 18,100 99 Climbing Salt Lake Center
Sat 08:44:44 AM 44.1544 -109.4611 221° Southwest 112 129 18,000 -50 Descending Salt Lake Center
Sat 08:45:45 AM 44.1244 -109.4950 219° Southwest 125 144 18,000  Level Salt Lake Center
Sat 08:46:45 AM 44.0931 -109.5325 221° Southwest 139 160 18,000 -50 Level Salt Lake Center
Sat 08:47:46 AM 44.0572 -109.5769 222° Southwest 148 170 17,900 -50 Descending Salt Lake Center
Sat 08:48:46 AM 44.0281 -109.6136 222° Southwest 149 171 17,900  Level Salt Lake Center
Sat 08:49:47 AM 43.9981 -109.6467 218° Southwest 147 169 17,900 -98 Level Salt Lake Center
Sat 08:50:48 AM 43.9675 -109.6797 218° Southwest 146 168 17,700 -99 Descending Salt Lake Center
Sat 08:51:48 AM 43.9306 -109.7175 216° Southwest 152 175 17,700 -50 Level Salt Lake Center
Sat 08:52:49 AM 43.8939 -109.7558 217° Southwest 160 184 17,600 149 Descending Salt Lake Center
Sat 08:53:49 AM 43.8617 -109.7914 219° Southwest 152 175 18,000 198 Climbing Salt Lake Center
Sat 08:54:50 AM 43.8303 -109.8289 221° Southwest 149 171 18,000  Level Salt Lake Center
Sat 08:55:50 AM 43.7956 -109.8683 219° Southwest 157 181 18,000  Level Salt Lake Center
Sat 08:56:51 AM 43.7619 -109.9072 220° Southwest 159 183 18,000  Level Salt Lake Center
Sat 08:57:52 AM 43.7283 -109.9461 220° Southwest 156 180 18,000  Level Salt Lake Center
Sat 08:58:52 AM 43.6939 -109.9842 219° Southwest 159 183 18,000  Level Salt Lake Center
Sat 08:59:53 AM 43.6603 -110.0244 221° Southwest 161 185 18,000  Level Salt Lake Center
Sat 09:00:53 AM 43.6261 -110.0614 218° Southwest 156 180 18,000  Level Salt Lake Center
Sat 09:01:54 AM 43.5919 -110.1000 219° Southwest 157 181 18,000  Level Salt Lake Center
Sat 09:02:55 AM 43.5572 -110.1378 218° Southwest 158 182 18,000  Level Salt Lake Center
Sat 09:03:55 AM 43.5208 -110.1756 217° Southwest 162 186 18,000  Level Salt Lake Center
Sat 09:04:56 AM 43.4856 -110.2139 218° Southwest 161 185 18,000  Level Salt Lake Center
Sat 09:05:57 AM 43.4422 -110.2622 219° Southwest 166 191 18,000  Level Salt Lake Center
Sat 09:06:57 AM 43.4078 -110.3031 221° Southwest 163 188 18,000  Level Salt Lake Center
Sat 09:07:58 AM 43.3750 -110.3411 220° Southwest 157 181 18,000  Level Salt Lake Center
Sat 09:08:59 AM 43.3419 -110.3775 219° Southwest 153 176 18,000  Level Salt Lake Center
Sat 09:09:59 AM 43.3069 -110.4153 218° Southwest 157 181 18,000  Level Salt Lake Center
Sat 09:11:00 AM 43.2714 -110.4508 216° Southwest 157 181 18,000  Level Salt Lake Center
Sat 09:12:01 AM 43.2381 -110.4872 218° Southwest 162 186 18,000  Level Salt Lake Center
Sat 09:13:01 AM 43.1981 -110.5308 218° Southwest 164 189 18,000  Level Salt Lake Center
Sat 09:14:02 AM 43.1647 -110.5656 217° Southwest 158 182 18,000  Level Salt Lake Center
Sat 09:15:03 AM 43.1300 -110.6017 217° Southwest 154 177 18,000  Level Salt Lake Center
Sat 09:16:03 AM 43.0947 -110.6406 219° Southwest 159 183 18,000 50 Level Salt Lake Center
Sat 09:17:04 AM 43.0600 -110.6808 220° Southwest 164 189 18,100 49 Climbing Salt Lake Center
Sat 09:18:05 AM 43.0247 -110.7192 218° Southwest 162 186 18,100  Level Salt Lake Center
Sat 09:19:06 AM 42.9892 -110.7589 219° Southwest 165 190 18,100  Level Salt Lake Center
Sat 09:20:06 AM 42.9528 -110.7969 217° Southwest 164 189 18,100  Level Salt Lake Center
Sat 09:21:07 AM 42.9167 -110.8369 219° Southwest 167 192 18,100  Level Salt Lake Center
Sat 09:22:08 AM 42.8792 -110.8772 218° Southwest 171 197 18,100  Level Salt Lake Center
Sat 09:23:09 AM 42.8428 -110.9158 218° Southwest 167 192 18,100  Level Salt Lake Center
Sat 09:24:09 AM 42.8056 -110.9556 218° Southwest 170 196 18,100  Level Salt Lake Center
Sat 09:25:10 AM 42.7692 -110.9947 218° Southwest 167 192 18,100  Level Salt Lake Center
Sat 09:26:11 AM 42.7328 -111.0325 217° Southwest 166 191 18,100  Level Salt Lake Center
Sat 09:27:12 AM 42.6978 -111.0708 219° Southwest 166 191 18,100  Level Salt Lake Center
Sat 09:28:13 AM 42.6536 -111.1158 217° Southwest 167 192 18,100  Level Salt Lake Center
Sat 09:29:14 AM 42.6178 -111.1544 218° Southwest 166 191 18,100  Level Salt Lake Center
Sat 09:30:15 AM 42.5803 -111.1944 218° Southwest 171 197 18,100  Level Salt Lake Center
Sat 09:31:15 AM 42.5456 -111.2322 219° Southwest 165 190 18,100  Level Salt Lake Center
Sat 09:32:16 AM 42.5094 -111.2692 217° Southwest 164 189 18,100  Level Salt Lake Center
Sat 09:33:17 AM 42.4731 -111.3089 219° Southwest 167 192 18,100 -49 Level Salt Lake Center
Sat 09:34:18 AM 42.4372 -111.3486 219° Southwest 169 194 18,000 -49 Descending Salt Lake Center
Sat 09:35:19 AM 42.4017 -111.3864 218° Southwest 165 190 18,000  Level Salt Lake Center
Sat 09:36:20 AM 42.3653 -111.4233 217° Southwest 163 188 18,000  Level Salt Lake Center
Sat 09:37:21 AM 42.3319 -111.4631 221° Southwest 161 185 18,000  Level Salt Lake Center
Sat 09:38:22 AM 42.2994 -111.5064 225° Southwest 164 189 18,000  Level Salt Lake Center
Sat 09:39:23 AM 42.2633 -111.5447 218° Southwest 165 190 18,000  Level Salt Lake Center
Sat 09:40:24 AM 42.2206 -111.5922 219° Southwest 166 191 18,000 49 Level Salt Lake Center
Sat 09:41:25 AM 42.1844 -111.6269 215° Southwest 163 188 18,100  Climbing Salt Lake Center
Sat 09:42:26 AM 42.1475 -111.6611 214° Southwest 162 186 18,000  Descending Salt Lake Center
Sat 09:43:27 AM 42.1108 -111.6969 216° Southwest 162 186 18,100 -49 Climbing Salt Lake Center
Sat 09:44:29 AM 42.0733 -111.7333 216° Southwest 164 189 17,900 -195 Descending Salt Lake Center
Sat 09:45:30 AM 42.0356 -111.7703 216° Southwest 167 192 17,700 -295 Descending Salt Lake Center
Sat 09:46:31 AM 41.9914 -111.7986 205° Southwest 177 204 17,300 -492 Descending Salt Lake Center
Sat 09:47:32 AM 41.9425 -111.8294 205° Southwest 190 219 16,700 -492 Descending Salt Lake Center
Sat 09:48:33 AM 41.8931 -111.8597 205° Southwest 196 226 16,300 -492 Descending Salt Lake Center
Sat 09:49:34 AM 41.8444 -111.8875 203° Southwest 192 221 15,700 -810 Descending Salt Lake Center
Sat 09:50:39 AM 41.7833 -111.9211 202° Southwest 193 222 14,600 -947 Descending Salt Lake Center
Sat 09:51:09 AM 41.7603 -111.9347 204° Southwest 197 227 14,200 -659 Descending Salt Lake Center
Sat 09:52:10 AM 41.7106 -111.9664 205° Southwest 200 230 13,600 -590 Descending Salt Lake Center
Sat 09:53:11 AM 41.6600 -111.9953 203° Southwest 200 230 13,000 -313 Descending Salt Lake Center
Sat 09:54:05 AM 41.6158 -112.0219 204° Southwest 190 219 13,000  Level Salt Lake Center
Sat 09:54:40 AM 41.5892 -112.0425 210° Southwest 182 209 13,000  Level Salt Lake Center
Sat 09:55:41 AM 41.5433 -112.0656 201° Southwest 178 205 13,000 -98 Level Salt Lake Center
Sat 09:56:42 AM 41.4944 -112.0803 193° South 181 208 12,800 -457 Descending Salt Lake Center
Sat 09:57:13 AM 41.4644 -112.0853 187° South 187 215 12,300 -698 Descending Salt Lake Center
Sat 09:58:08 AM 41.4164 -112.1044 197° South 199 229 11,800 -522 Descending Salt Lake Center
Sat 09:58:45 AM 41.3900 -112.1192 203° Southwest 197 227 11,500 -490 Descending Salt Lake Center
Sat 09:59:46 AM 41.3378 -112.1375 195° South 195 224 11,000 -246 Descending Salt Lake Center
Sat 10:00:47 AM 41.2781 -112.1572 194° South 185 213 11,000  Level Salt Lake Center
Sat 10:02:04 AM 41.2194 -112.1544 178° South 176 203 11,000  Level Salt Lake Center
Sat 10:02:49 AM 41.1828 -112.1508 176° South 173 199 11,000  Level Salt Lake Center
Sat 10:03:51 AM 41.1347 -112.1447 175° South 174 200 11,000  Level Salt Lake Center
Sat 10:04:52 AM 41.0864 -112.1386 175° South 175 201 11,000  Level Salt Lake Center
Sat 10:05:53 AM 41.0392 -112.1336 175° South 172 198 11,000  Level Salt Lake Center
Sat 10:06:54 AM 40.9922 -112.1281 175° South 174 200 11,000  Level Salt Lake Center
Sat 10:07:56 AM 40.9353 -112.1153 170° South 174 200 11,000  Level Salt Lake Center
Sat 10:08:26 AM 40.9139 -112.1103 170° South 172 198 11,000  Level Salt Lake Center
Sat 10:08:57 AM 40.8897 -112.1033 168° South 169 194 11,000  Level Salt Lake Center
Sat 10:09:58 AM 40.8461 -112.0922 169° South 158 182 11,000  Level Salt Lake Center
Sat 10:10:33 AM 40.8194 -112.0883 174° South 161 185 11,000 -400 Level Salt Lake Center
Sat 10:11:28 AM 40.7769 -112.0800 172° South 164 189 10,400 -886 Descending Salt Lake Center
Sat 10:12:01 AM 40.7564 -112.0744 168° South 166 191 9,700 -1,660 Descending Salt Lake Center
Sat 10:13:02 AM 40.7239 -112.0336 136° Southeast 177 204 7,800 -1,979 Descending Salt Lake Center
Sat 10:13:35 AM 40.7172 -111.9956 103° East 183 211 6,600 -1,560 Descending Salt Lake Center
Sat 10:14:42 AM 40.7433 -111.9642 42° Northeast 123 142 5,200 -914 Descending Salt Lake Center
Sat 10:16:06 AM 40.7800 -111.9619 North 103 119 4,300 -643 Descending Salt Lake Center

Login

Don't have an account? Register now (free) for customized features, flight alerts, and more!